TimeCDT,TemperatureF,Dew PointF,Humidity,Sea Level PressureIn,VisibilityMPH,Wind Direction,Wind SpeedMPH,Gust SpeedMPH,PrecipitationIn,Events,Conditions,WindDirDegrees,DateUTC
12:51 AM,51.1,25.0,36,29.92,10.0,South,15.0,23.0,N/A,,Clear,190,2013-10-20 05:51:00
1:51 AM,48.9,27.0,43,29.90,10.0,South,12.7,19.6,N/A,,Clear,190,2013-10-20 06:51:00
2:51 AM,46.9,28.9,50,29.89,10.0,South,6.9,-,N/A,,Clear,190,2013-10-20 07:51:00
3:51 AM,46.0,30.0,54,29.87,10.0,SSW,10.4,-,N/A,,Clear,200,2013-10-20 08:51:00
4:51 AM,45.0,30.9,58,29.85,10.0,SSW,6.9,-,N/A,,Clear,200,2013-10-20 09:51:00
5:51 AM,45.0,32.0,60,29.83,10.0,SSW,9.2,-,N/A,,Clear,210,2013-10-20 10:51:00
6:51 AM,44.1,32.0,63,29.83,10.0,WSW,6.9,-,N/A,,Clear,240,2013-10-20 11:51:00
7:51 AM,42.1,30.9,65,29.84,10.0,WSW,6.9,-,N/A,,Clear,240,2013-10-20 12:51:00
8:51 AM,43.0,30.9,62,29.85,10.0,West,4.6,-,N/A,,Clear,260,2013-10-20 13:51:00
9:51 AM,48.9,30.0,48,29.85,10.0,SW,5.8,-,N/A,,Clear,230,2013-10-20 14:51:00
10:51 AM,55.9,28.0,34,29.82,10.0,West,4.6,-,N/A,,Clear,260,2013-10-20 15:51:00
11:51 AM,63.0,28.0,27,29.80,10.0,West,5.8,-,N/A,,Clear,260,2013-10-20 16:51:00
12:51 PM,68.0,28.0,22,29.77,10.0,Variable,4.6,-,N/A,,Clear,0,2013-10-20 17:51:00
1:51 PM,73.0,27.0,18,29.75,10.0,Variable,5.8,-,N/A,,Clear,0,2013-10-20 18:51:00
2:51 PM,75.0,23.0,14,29.73,10.0,Variable,4.6,-,N/A,,Clear,0,2013-10-20 19:51:00
3:51 PM,75.9,23.0,14,29.73,10.0,North,8.1,-,N/A,,Clear,350,2013-10-20 20:51:00
4:51 PM,75.0,24.1,15,29.73,10.0,NNW,11.5,-,N/A,,Clear,340,2013-10-20 21:51:00
5:51 PM,72.0,28.9,20,29.77,10.0,North,11.5,19.6,N/A,,Clear,360,2013-10-20 22:51:00
6:51 PM,68.0,28.9,23,29.81,10.0,North,11.5,-,N/A,,Clear,10,2013-10-20 23:51:00
7:51 PM,63.0,33.1,33,29.86,10.0,NNE,18.4,25.3,N/A,,Clear,20,2013-10-21 00:51:00
8:51 PM,59.0,35.1,41,29.91,10.0,NNE,18.4,28.8,N/A,,Clear,30,2013-10-21 01:51:00
9:51 PM,57.0,36.0,45,29.93,10.0,NE,18.4,21.9,N/A,,Clear,40,2013-10-21 02:51:00
10:51 PM,54.0,37.0,53,29.95,10.0,NNE,13.8,-,N/A,,Clear,30,2013-10-21 03:51:00
11:51 PM,53.1,37.0,55,29.95,10.0,NNE,13.8,-,N/A,,Clear,30,2013-10-21 04:51:00